Time;durP1;ratioP1;P1;durP2;ratioP2;P2;SDS_P1;SDS_P2;PMS_P1;PMS_P2;Temp;Humidity;BMP_temperature;BMP_pressure;BME280_temperature;BME280_humidity;BME280_pressure;Samples;Min_cycle;Max_cycle;Signal;HPM_P1;HPM_P2
2023/07/06 00:00:39;;;;;;;5.25;2.72;;;13.80;99.90;;;;;;5046401;28;20226;-64
2023/07/06 00:03:05;;;;;;;3.88;2.42;;;13.80;99.90;;;;;;5058536;28;20207;-64
2023/07/06 00:05:35;;;;;;;5.32;2.65;;;13.80;99.90;;;;;;5049308;28;20220;-64
2023/07/06 00:08:03;;;;;;;3.53;2.15;;;13.80;99.90;;;;;;5031409;28;20719;-64
2023/07/06 00:10:33;;;;;;;4.22;1.98;;;13.80;99.90;;;;;;5059978;28;20196;-64
2023/07/06 00:13:01;;;;;;;7.82;2.42;;;13.70;99.90;;;;;;5049373;28;20207;-64
2023/07/06 00:15:27;;;;;;;2.78;2.45;;;13.70;99.90;;;;;;5058175;28;20201;-64
2023/07/06 00:17:55;;;;;;;4.18;2.10;;;13.70;99.90;;;;;;5052098;28;20810;-65
2023/07/06 00:20:22;;;;;;;4.95;2.22;;;13.70;99.90;;;;;;5057817;28;20232;-64
2023/07/06 00:22:50;;;;;;;6.35;2.40;;;13.60;99.90;;;;;;5036624;28;20746;-64
2023/07/06 00:25:17;;;;;;;6.97;2.40;;;13.60;99.90;;;;;;5058658;28;20228;-64
2023/07/06 00:27:44;;;;;;;6.25;2.50;;;13.50;99.90;;;;;;5058609;28;20423;-63
2023/07/06 00:30:18;;;;;;;5.05;2.70;;;13.60;99.90;;;;;;5060209;28;20196;-64
2023/07/06 00:32:47;;;;;;;3.95;2.55;;;13.50;99.90;;;;;;5051780;28;20798;-65
2023/07/06 00:35:15;;;;;;;3.85;2.67;;;13.50;99.90;;;;;;5053481;28;20204;-64
2023/07/06 00:37:42;;;;;;;4.07;2.33;;;13.50;99.90;;;;;;5061757;28;20199;-64
2023/07/06 00:40:13;;;;;;;5.05;2.22;;;13.50;99.90;;;;;;5034053;28;20615;-64
2023/07/06 00:42:41;;;;;;;4.80;2.13;;;13.40;99.90;;;;;;5061114;28;20350;-64
2023/07/06 00:45:10;;;;;;;3.25;2.35;;;13.40;99.90;;;;;;5050022;28;20228;-64
2023/07/06 00:47:41;;;;;;;6.38;2.65;;;13.40;99.90;;;;;;5063868;28;20195;-64
2023/07/06 00:50:12;;;;;;;3.50;2.22;;;13.30;99.90;;;;;;5046865;28;20223;-64
2023/07/06 00:52:48;;;;;;;4.05;2.30;;;13.30;99.90;;;;;;5050402;28;20204;-64
2023/07/06 00:55:19;;;;;;;3.03;2.00;;;13.30;99.90;;;;;;5029142;28;20362;-64
2023/07/06 00:57:51;;;;;;;6.68;2.75;;;13.30;99.90;;;;;;5061610;28;20863;-64
2023/07/06 01:00:21;;;;;;;5.05;2.45;;;13.20;99.90;;;;;;5054680;28;20334;-64
2023/07/06 01:02:51;;;;;;;4.47;2.60;;;13.30;99.90;;;;;;5057339;28;20476;-64
2023/07/06 01:05:19;;;;;;;2.75;2.15;;;13.30;99.90;;;;;;5063616;28;20295;-64
2023/07/06 01:07:48;;;;;;;5.13;2.42;;;13.30;99.90;;;;;;5038882;28;20515;-64
2023/07/06 01:10:18;;;;;;;3.65;2.58;;;13.30;99.90;;;;;;5025787;28;20530;-64
2023/07/06 01:12:46;;;;;;;2.92;1.92;;;13.30;99.90;;;;;;5057548;28;20192;-64
2023/07/06 01:15:16;;;;;;;4.10;2.28;;;13.20;99.90;;;;;;5051936;28;20313;-64
2023/07/06 01:17:53;;;;;;;3.28;2.30;;;13.30;99.90;;;;;;5059201;28;20299;-64
2023/07/06 01:20:30;;;;;;;2.85;2.10;;;13.20;99.90;;;;;;5059012;28;20391;-64
2023/07/06 01:23:15;;;;;;;6.93;3.00;;;13.20;99.90;;;;;;5047562;28;20231;-64
2023/07/06 01:26:00;;;;;;;4.55;2.33;;;13.20;99.90;;;;;;5035993;28;20216;-64
2023/07/06 01:28:50;;;;;;;9.18;2.78;;;13.20;99.90;;;;;;5059387;28;20736;-64
2023/07/06 01:31:29;;;;;;;11.88;2.40;;;13.30;99.90;;;;;;5049440;28;20797;-64
2023/07/06 01:34:02;;;;;;;5.03;2.30;;;13.20;99.90;;;;;;5052867;28;20203;-64
2023/07/06 01:36:37;;;;;;;3.97;2.40;;;13.20;99.90;;;;;;5061360;28;20261;-64
2023/07/06 01:39:16;;;;;;;4.00;2.58;;;13.20;99.90;;;;;;5020809;28;20863;-64
2023/07/06 01:41:45;;;;;;;4.10;2.50;;;13.20;99.90;;;;;;5050317;28;20207;-64
2023/07/06 01:44:14;;;;;;;5.40;2.70;;;13.20;99.90;;;;;;5057332;28;20429;-63
2023/07/06 01:46:48;;;;;;;5.97;2.95;;;13.20;99.90;;;;;;5052608;28;20486;-64
2023/07/06 01:49:15;;;;;;;2.90;2.40;;;13.20;99.90;;;;;;5057809;28;20220;-64
2023/07/06 01:51:51;;;;;;;2.50;2.20;;;13.20;99.90;;;;;;5059442;28;20201;-63
2023/07/06 01:54:22;;;;;;;7.53;3.00;;;13.20;99.90;;;;;;5050683;28;20671;-64
2023/07/06 01:56:54;;;;;;;3.47;2.92;;;13.20;99.90;;;;;;5032719;28;20216;-64
2023/07/06 01:59:25;;;;;;;10.57;3.28;;;13.20;99.90;;;;;;5058846;28;20652;-64
2023/07/06 02:02:00;;;;;;;5.60;3.50;;;13.10;99.90;;;;;;5053801;28;20196;-63
2023/07/06 02:04:28;;;;;;;5.75;3.95;;;13.20;99.90;;;;;;5058863;28;20188;-63
2023/07/06 02:06:55;;;;;;;10.98;3.92;;;13.00;99.90;;;;;;5051117;28;20258;-63
2023/07/06 02:09:22;;;;;;;6.65;3.63;;;13.00;99.90;;;;;;5051025;28;21235;-64
2023/07/06 02:11:51;;;;;;;5.35;3.45;;;13.00;99.90;;;;;;5036683;28;20235;-64
2023/07/06 02:14:19;;;;;;;7.28;3.53;;;13.00;99.90;;;;;;5050918;28;20715;-64
2023/07/06 02:16:45;;;;;;;9.95;3.70;;;13.00;99.90;;;;;;5058431;28;20200;-64
2023/07/06 02:19:14;;;;;;;7.32;4.65;;;12.90;99.90;;;;;;5049325;28;20485;-64
2023/07/06 02:21:40;;;;;;;5.97;4.65;;;12.90;99.90;;;;;;5059398;28;20196;-64
2023/07/06 02:24:09;;;;;;;9.75;5.10;;;12.90;99.90;;;;;;5046404;28;22052;-64
2023/07/06 02:26:36;;;;;;;7.10;5.40;;;12.90;99.90;;;;;;5038783;28;20251;-64
2023/07/06 02:29:03;;;;;;;7.53;4.88;;;12.90;99.90;;;;;;5045482;28;20224;-64
2023/07/06 02:31:29;;;;;;;6.80;4.97;;;12.90;99.90;;;;;;5055942;28;20239;-64
2023/07/06 02:33:56;;;;;;;8.18;5.18;;;13.00;99.90;;;;;;5046175;28;20231;-64
2023/07/06 02:36:24;;;;;;;7.63;4.93;;;13.00;99.90;;;;;;5056856;28;20201;-64
2023/07/06 02:38:51;;;;;;;6.97;4.60;;;13.00;99.90;;;;;;5055278;28;20192;-64
2023/07/06 02:41:18;;;;;;;8.20;5.10;;;13.00;99.90;;;;;;5029910;28;20865;-64
2023/07/06 02:43:45;;;;;;;7.80;5.68;;;13.00;99.90;;;;;;5056479;28;20193;-64
2023/07/06 02:46:19;;;;;;;8.70;5.10;;;13.00;99.90;;;;;;5045690;28;20827;-64
2023/07/06 02:48:46;;;;;;;8.38;5.10;;;13.00;99.90;;;;;;5058504;28;20230;-64
2023/07/06 02:51:13;;;;;;;7.35;5.15;;;13.00;99.90;;;;;;5052911;28;20517;-64
2023/07/06 02:53:41;;;;;;;8.63;4.97;;;13.00;99.90;;;;;;5056244;28;20729;-64
2023/07/06 02:56:08;;;;;;;5.53;4.18;;;13.00;99.90;;;;;;5035450;28;20207;-64
2023/07/06 02:58:35;;;;;;;6.97;4.75;;;13.00;99.90;;;;;;5033905;28;20429;-64
2023/07/06 03:01:04;;;;;;;7.05;4.68;;;13.00;99.90;;;;;;5032815;28;20204;-64
2023/07/06 03:03:30;;;;;;;6.47;4.60;;;13.00;99.90;;;;;;5055206;28;20520;-64
2023/07/06 03:06:01;;;;;;;5.90;4.18;;;13.00;99.90;;;;;;5052167;28;20280;-64
2023/07/06 03:08:28;;;;;;;8.25;4.32;;;13.00;99.90;;;;;;5050154;28;20207;-64
2023/07/06 03:10:56;;;;;;;5.70;4.38;;;13.10;99.90;;;;;;5051967;28;20203;-64
2023/07/06 03:13:25;;;;;;;6.50;4.53;;;13.10;99.90;;;;;;5032404;28;20596;-64
2023/07/06 03:15:52;;;;;;;8.57;5.05;;;13.00;99.90;;;;;;5057144;28;20235;-64
2023/07/06 03:18:20;;;;;;;5.65;4.25;;;13.10;99.90;;;;;;5047955;28;20197;-64
2023/07/06 03:20:48;;;;;;;6.95;4.75;;;13.10;99.90;;;;;;5059300;28;20204;-64
2023/07/06 03:23:14;;;;;;;5.90;4.65;;;13.10;99.90;;;;;;5053260;28;20524;-64
2023/07/06 03:25:42;;;;;;;5.55;4.45;;;13.10;99.90;;;;;;5061153;28;20209;-63
2023/07/06 03:28:10;;;;;;;7.70;4.72;;;13.10;99.90;;;;;;5039936;28;20196;-64
2023/07/06 03:30:37;;;;;;;5.38;4.25;;;13.20;99.90;;;;;;5041277;28;20220;-64
2023/07/06 03:33:03;;;;;;;7.25;4.38;;;13.20;99.90;;;;;;5053656;28;21338;-64
2023/07/06 03:35:30;;;;;;;6.70;4.47;;;13.20;99.90;;;;;;5054900;28;20419;-64
2023/07/06 03:37:58;;;;;;;6.32;4.22;;;13.30;99.90;;;;;;5058570;28;20545;-64
2023/07/06 03:40:29;;;;;;;5.85;4.28;;;13.20;99.90;;;;;;5057548;28;20716;-64
2023/07/06 03:42:58;;;;;;;6.53;4.55;;;13.20;99.90;;;;;;5053952;28;20203;-64
2023/07/06 03:45:26;;;;;;;11.80;4.97;;;13.20;99.90;;;;;;5036607;28;20543;-64
2023/07/06 03:47:53;;;;;;;6.05;4.15;;;13.20;99.90;;;;;;5051008;28;20267;-64
2023/07/06 03:50:21;;;;;;;6.43;4.63;;;13.30;99.90;;;;;;5059481;28;20219;-64
2023/07/06 03:52:48;;;;;;;5.53;4.88;;;13.20;99.90;;;;;;5064930;28;20570;-64
2023/07/06 03:55:18;;;;;;;6.00;4.75;;;13.30;99.90;;;;;;5054545;28;20289;-64
2023/07/06 03:57:46;;;;;;;8.90;4.60;;;13.20;99.90;;;;;;5055231;28;20445;-64
2023/07/06 04:00:19;;;;;;;6.90;4.57;;;13.20;99.90;;;;;;5035240;28;20322;-64
2023/07/06 04:02:48;;;;;;;5.55;4.53;;;13.20;99.90;;;;;;5052261;28;20204;-64
2023/07/06 04:05:17;;;;;;;8.65;4.72;;;13.20;99.90;;;;;;5058715;28;20230;-64
2023/07/06 04:07:44;;;;;;;11.48;5.20;;;13.20;99.90;;;;;;5064008;28;20720;-64
2023/07/06 04:10:12;;;;;;;7.45;5.20;;;13.00;99.90;;;;;;5060247;28;20193;-64
2023/07/06 04:12:39;;;;;;;7.43;5.00;;;13.20;99.90;;;;;;5063883;28;20519;-64
2023/07/06 04:15:07;;;;;;;7.03;5.78;;;13.20;99.90;;;;;;5047687;28;20248;-64
2023/07/06 04:17:36;;;;;;;10.30;6.13;;;13.20;99.90;;;;;;5040268;28;20999;-64
2023/07/06 04:20:08;;;;;;;12.57;5.97;;;13.20;99.90;;;;;;5067445;28;20269;-64
2023/07/06 04:22:35;;;;;;;9.48;6.60;;;13.30;99.90;;;;;;5064243;28;20232;-64
2023/07/06 04:25:02;;;;;;;9.25;5.90;;;13.30;99.90;;;;;;5049857;28;20205;-63
2023/07/06 04:27:29;;;;;;;6.25;5.13;;;13.30;99.90;;;;;;5055500;28;20216;-64
2023/07/06 04:29:56;;;;;;;8.25;6.07;;;13.30;99.90;;;;;;5048857;28;20729;-63
2023/07/06 04:32:23;;;;;;;6.85;5.78;;;13.30;99.90;;;;;;5020628;28;20721;-64
2023/07/06 04:34:51;;;;;;;8.82;5.97;;;13.30;99.90;;;;;;5046089;28;20527;-64
2023/07/06 04:37:19;;;;;;;9.05;6.50;;;13.40;99.90;;;;;;5060258;28;20362;-64
2023/07/06 04:39:46;;;;;;;10.60;6.25;;;13.40;99.90;;;;;;5065191;28;20798;-64
2023/07/06 04:42:12;;;;;;;8.13;5.90;;;13.50;99.90;;;;;;5058495;28;20641;-64
2023/07/06 04:44:40;;;;;;;7.78;5.20;;;13.50;99.90;;;;;;5051840;28;20586;-64
2023/07/06 04:47:08;;;;;;;8.10;4.97;;;13.60;99.90;;;;;;5022611;28;20220;-64
2023/07/06 04:49:34;;;;;;;6.30;4.85;;;13.60;99.90;;;;;;5053235;28;20234;-64
2023/07/06 04:52:02;;;;;;;7.95;4.70;;;13.70;99.90;;;;;;5055788;28;20200;-64
2023/07/06 04:54:31;;;;;;;7.38;4.35;;;13.70;99.90;;;;;;5061614;28;20618;-64
2023/07/06 04:56:59;;;;;;;5.82;4.40;;;13.80;99.90;;;;;;5060254;28;20665;-64
2023/07/06 04:59:26;;;;;;;8.07;4.70;;;13.90;99.90;;;;;;5053618;28;20295;-64
2023/07/06 05:01:53;;;;;;;14.05;4.95;;;13.90;99.90;;;;;;5036311;28;20665;-64
2023/07/06 05:04:20;;;;;;;6.70;4.40;;;13.90;99.90;;;;;;5047541;28;20410;-64
2023/07/06 05:06:47;;;;;;;5.13;4.18;;;14.00;99.90;;;;;;5057567;28;20224;-64
2023/07/06 05:09:14;;;;;;;6.30;4.47;;;14.00;99.90;;;;;;5051384;28;20611;-64
2023/07/06 05:11:42;;;;;;;5.68;4.45;;;14.10;99.90;;;;;;5054065;28;20216;-64
2023/07/06 05:14:08;;;;;;;8.25;4.70;;;14.10;99.90;;;;;;5039500;28;20401;-64
2023/07/06 05:16:35;;;;;;;7.47;4.60;;;14.10;99.90;;;;;;5046506;28;20534;-64
2023/07/06 05:19:02;;;;;;;7.80;4.88;;;14.10;99.90;;;;;;5029088;28;20678;-64
2023/07/06 05:21:29;;;;;;;6.82;4.35;;;14.10;99.90;;;;;;5060835;28;20280;-64
2023/07/06 05:23:56;;;;;;;7.28;5.13;;;14.10;99.90;;;;;;5023989;28;1096008;-64
2023/07/06 05:26:22;;;;;;;8.00;4.70;;;14.00;99.90;;;;;;5058755;28;20606;-64
2023/07/06 05:28:52;;;;;;;9.75;4.70;;;14.00;99.90;;;;;;5056851;28;20193;-64
2023/07/06 05:31:19;;;;;;;6.10;4.63;;;14.00;99.90;;;;;;5054900;28;20283;-64
2023/07/06 05:33:46;;;;;;;8.82;4.78;;;14.00;99.90;;;;;;5032056;28;20204;-64
2023/07/06 05:36:13;;;;;;;6.78;5.07;;;14.00;99.90;;;;;;5043867;28;20208;-64
2023/07/06 05:38:39;;;;;;;5.82;4.72;;;14.00;99.90;;;;;;5056174;28;20200;-64
2023/07/06 05:41:06;;;;;;;6.82;4.72;;;14.00;99.90;;;;;;5045868;28;20313;-64
2023/07/06 05:43:33;;;;;;;7.07;4.38;;;14.10;99.90;;;;;;5056487;28;20202;-64
2023/07/06 05:46:01;;;;;;;10.20;5.13;;;14.10;99.90;;;;;;5045451;28;20205;-64
2023/07/06 05:48:28;;;;;;;7.00;4.90;;;14.10;99.90;;;;;;5033457;28;21748;-64
2023/07/06 05:50:55;;;;;;;7.97;5.22;;;14.20;99.90;;;;;;5046124;28;20223;-64
2023/07/06 05:53:21;;;;;;;14.45;5.70;;;14.20;99.90;;;;;;5062723;28;20193;-64
2023/07/06 05:55:48;;;;;;;6.80;4.70;;;14.20;99.90;;;;;;5050700;28;20205;-64
2023/07/06 05:58:16;;;;;;;7.57;5.05;;;14.30;99.90;;;;;;5060706;28;20257;-64
2023/07/06 06:00:43;;;;;;;6.32;5.10;;;14.50;99.90;;;;;;5055738;28;20217;-65
2023/07/06 06:03:12;;;;;;;10.30;5.43;;;14.40;99.90;;;;;;5055749;28;20497;-64
2023/07/06 06:05:39;;;;;;;10.32;4.75;;;14.40;99.90;;;;;;5023129;28;20207;-64
2023/07/06 06:08:06;;;;;;;5.70;3.40;;;14.60;99.90;;;;;;5059766;28;20320;-64
2023/07/06 06:10:33;;;;;;;6.20;4.45;;;14.90;99.90;;;;;;5060332;28;20209;-64
2023/07/06 06:13:00;;;;;;;6.85;4.60;;;15.30;99.90;;;;;;5057231;28;20339;-64
2023/07/06 06:15:27;;;;;;;5.28;4.28;;;15.20;99.90;;;;;;5061453;28;20206;-64
2023/07/06 06:17:54;;;;;;;8.35;5.30;;;15.20;99.90;;;;;;5052269;28;20285;-64
2023/07/06 06:20:22;;;;;;;6.93;4.60;;;15.10;99.90;;;;;;5033941;28;20223;-63
2023/07/06 06:22:49;;;;;;;7.88;4.88;;;15.10;99.90;;;;;;5052484;28;20637;-64
2023/07/06 06:25:16;;;;;;;5.95;4.55;;;15.00;99.90;;;;;;5042149;28;20204;-64
2023/07/06 06:27:46;;;;;;;7.88;4.47;;;15.00;99.90;;;;;;5053545;28;20221;-64
2023/07/06 06:30:14;;;;;;;7.03;5.07;;;15.10;99.90;;;;;;5042207;28;20312;-64
2023/07/06 06:32:42;;;;;;;7.97;4.55;;;15.10;99.90;;;;;;5048274;28;20812;-64
2023/07/06 06:35:22;;;;;;;6.07;4.45;;;15.10;99.90;;;;;;5030843;28;20220;-64
2023/07/06 06:37:49;;;;;;;11.43;5.13;;;15.20;99.90;;;;;;5045702;28;20197;-64
2023/07/06 06:40:16;;;;;;;12.40;4.68;;;15.20;99.90;;;;;;5053327;28;20715;-64
2023/07/06 06:42:43;;;;;;;6.50;5.28;;;15.30;99.90;;;;;;5063290;28;20203;-64
2023/07/06 06:45:11;;;;;;;6.57;4.35;;;15.30;99.90;;;;;;5056160;28;20545;-64
2023/07/06 06:47:38;;;;;;;6.07;4.63;;;15.40;99.90;;;;;;5058887;28;20228;-64
2023/07/06 06:50:08;;;;;;;13.23;5.47;;;15.40;99.90;;;;;;5041568;28;20214;-64
2023/07/06 06:52:37;;;;;;;5.22;4.40;;;15.80;99.90;;;;;;5031874;28;20205;-64
2023/07/06 06:55:05;;;;;;;5.40;4.60;;;15.50;99.90;;;;;;5047067;28;20200;-64
2023/07/06 06:57:32;;;;;;;7.43;4.90;;;15.50;99.90;;;;;;5047345;28;20378;-64
2023/07/06 06:59:59;;;;;;;5.95;4.35;;;15.60;99.90;;;;;;5053172;28;20193;-64
2023/07/06 07:02:26;;;;;;;6.75;4.72;;;15.70;99.90;;;;;;5055989;28;20199;-64
2023/07/06 07:04:58;;;;;;;8.55;4.97;;;15.70;99.90;;;;;;5059568;28;20192;-64
2023/07/06 07:07:25;;;;;;;7.93;4.63;;;15.70;99.90;;;;;;5032025;28;20362;-64
2023/07/06 07:09:54;;;;;;;7.25;4.88;;;15.70;99.90;;;;;;5043486;28;20207;-63
2023/07/06 07:12:21;;;;;;;9.70;5.35;;;15.60;99.90;;;;;;5052073;28;20208;-64
2023/07/06 07:14:48;;;;;;;8.10;5.00;;;15.70;99.90;;;;;;5045352;28;20192;-64
2023/07/06 07:17:15;;;;;;;8.35;5.32;;;15.70;99.90;;;;;;5056735;28;20721;-64
2023/07/06 07:19:42;;;;;;;9.27;5.75;;;15.70;99.90;;;;;;5051657;28;21354;-64
2023/07/06 07:22:10;;;;;;;14.85;6.00;;;15.70;99.90;;;;;;5033235;28;20219;-64
2023/07/06 07:24:37;;;;;;;7.85;4.57;;;15.70;99.90;;;;;;5054391;28;20231;-64
2023/07/06 07:27:06;;;;;;;8.38;5.10;;;15.80;99.90;;;;;;5055214;28;20227;-64
2023/07/06 07:29:33;;;;;;;6.72;5.20;;;15.90;99.90;;;;;;5059121;28;20866;-64
2023/07/06 07:32:02;;;;;;;11.48;5.32;;;15.90;99.90;;;;;;5051834;28;20560;-63
2023/07/06 07:34:29;;;;;;;10.20;5.47;;;16.00;99.90;;;;;;5057468;28;20562;-64
2023/07/06 07:36:57;;;;;;;9.65;5.60;;;15.90;99.90;;;;;;5032268;28;20425;-64
2023/07/06 07:39:24;;;;;;;9.65;5.15;;;16.00;99.90;;;;;;5058051;28;20193;-64
2023/07/06 07:41:52;;;;;;;8.80;5.85;;;16.00;99.90;;;;;;5044617;28;20418;-65
2023/07/06 07:44:21;;;;;;;15.82;6.80;;;15.30;99.90;;;;;;5048693;28;20325;-64
2023/07/06 07:46:48;;;;;;;13.95;5.65;;;16.10;99.90;;;;;;5043974;28;20204;-64
2023/07/06 07:49:15;;;;;;;9.05;5.68;;;16.00;99.90;;;;;;5053428;28;20811;-64
2023/07/06 07:51:42;;;;;;;8.13;5.88;;;16.00;99.90;;;;;;5057066;28;20737;-64
2023/07/06 07:54:09;;;;;;;11.43;6.25;;;15.90;99.90;;;;;;5030050;28;20238;-64
2023/07/06 07:56:36;;;;;;;7.60;5.28;;;16.20;99.90;;;;;;5050145;28;20220;-64
2023/07/06 07:59:03;;;;;;;12.85;6.50;;;15.90;99.90;;;;;;5046633;28;20215;-64
2023/07/06 08:01:32;;;;;;;10.25;6.47;;;16.00;99.90;;;;;;5041890;28;20987;-64
2023/07/06 08:03:59;;;;;;;10.65;5.88;;;16.00;99.90;;;;;;5057415;28;20232;-64
2023/07/06 08:06:25;;;;;;;8.57;5.20;;;16.10;99.90;;;;;;5050458;28;20197;-64
2023/07/06 08:08:53;;;;;;;13.60;6.55;;;16.10;99.90;;;;;;5036298;28;20228;-64
2023/07/06 08:11:23;;;;;;;7.53;5.55;;;16.10;99.90;;;;;;5056010;28;20216;-64
2023/07/06 08:13:51;;;;;;;9.73;5.80;;;16.30;99.90;;;;;;5045393;28;20204;-64
2023/07/06 08:16:19;;;;;;;11.60;5.70;;;16.30;99.90;;;;;;5053620;28;20922;-64
2023/07/06 08:18:48;;;;;;;12.38;5.53;;;16.30;99.90;;;;;;5053503;28;20691;-63
2023/07/06 08:21:15;;;;;;;12.45;5.32;;;16.30;99.90;;;;;;5055818;28;20283;-64
2023/07/06 08:23:49;;;;;;;7.43;5.90;;;16.40;99.90;;;;;;5031668;28;29771;-64
2023/07/06 08:26:16;;;;;;;12.18;6.13;;;16.40;99.90;;;;;;5056791;28;21380;-64
2023/07/06 08:28:44;;;;;;;7.00;5.15;;;16.50;99.90;;;;;;5058579;28;20828;-64
2023/07/06 08:31:12;;;;;;;8.05;4.70;;;16.50;99.90;;;;;;5063980;28;20417;-64
2023/07/06 08:33:40;;;;;;;11.30;5.82;;;16.60;99.90;;;;;;5049374;28;20820;-64
2023/07/06 08:36:09;;;;;;;12.25;4.57;;;16.60;99.90;;;;;;5060660;28;20196;-64
2023/07/06 08:38:37;;;;;;;7.18;5.00;;;16.70;99.90;;;;;;5060389;28;20468;-64
2023/07/06 08:41:13;;;;;;;5.43;3.53;;;16.80;99.90;;;;;;5034979;28;20212;-64
2023/07/06 08:43:41;;;;;;;4.30;3.47;;;16.70;99.90;;;;;;5061096;28;20200;-64
2023/07/06 08:46:12;;;;;;;5.32;3.58;;;16.80;99.90;;;;;;5046651;28;20200;-64
2023/07/06 08:48:41;;;;;;;5.90;3.55;;;17.00;99.90;;;;;;5053142;28;20940;-64
2023/07/06 08:51:17;;;;;;;5.00;3.58;;;17.00;99.90;;;;;;5046392;28;20211;-64
2023/07/06 08:53:50;;;;;;;7.15;3.90;;;17.00;99.90;;;;;;5058601;28;20250;-64
2023/07/06 08:56:19;;;;;;;6.70;3.85;;;17.10;99.90;;;;;;5029928;28;20204;-64
2023/07/06 08:58:46;;;;;;;5.53;3.97;;;17.10;99.90;;;;;;5053416;28;20268;-64
2023/07/06 09:01:16;;;;;;;5.55;2.70;;;17.20;99.90;;;;;;5042709;28;20223;-64
2023/07/06 09:03:47;;;;;;;4.30;3.10;;;17.20;99.90;;;;;;5047358;28;21344;-65
2023/07/06 09:06:19;;;;;;;4.22;2.55;;;17.40;99.90;;;;;;5036279;28;20300;-65
2023/07/06 09:08:47;;;;;;;3.25;2.88;;;17.50;99.90;;;;;;5043831;28;20231;-64
2023/07/06 09:11:15;;;;;;;5.43;3.10;;;17.60;99.90;;;;;;5005120;28;20277;-65
2023/07/06 09:13:47;;;;;;;3.75;2.72;;;17.80;99.90;;;;;;5018004;28;20422;-65
2023/07/06 09:16:18;;;;;;;2.97;2.28;;;17.80;99.90;;;;;;5043991;28;20519;-64
2023/07/06 09:18:45;;;;;;;5.28;2.15;;;18.00;99.90;;;;;;5034625;28;20431;-64
2023/07/06 09:21:12;;;;;;;3.22;2.05;;;18.00;99.90;;;;;;5037776;28;20566;-64
2023/07/06 09:23:46;;;;;;;5.40;2.22;;;18.30;99.90;;;;;;5045303;28;20220;-65
2023/07/06 09:26:22;;;;;;;4.93;2.03;;;18.30;99.90;;;;;;5034667;28;20208;-65
2023/07/06 09:28:51;;;;;;;3.22;2.10;;;18.10;99.90;;;;;;5044893;28;20676;-64
2023/07/06 09:31:21;;;;;;;4.05;2.10;;;18.10;99.90;;;;;;5050978;28;20227;-64
2023/07/06 09:33:50;;;;;;;5.05;2.00;;;18.00;99.90;;;;;;5047243;28;20223;-65
2023/07/06 09:36:22;;;;;;;5.53;1.98;;;17.90;99.90;;;;;;5036115;28;20859;-64
2023/07/06 09:38:50;;;;;;;5.50;2.13;;;17.90;99.90;;;;;;5053453;28;20443;-64
2023/07/06 09:41:23;;;;;;;4.07;2.00;;;17.80;99.90;;;;;;5055630;28;20774;-64
2023/07/06 09:43:57;;;;;;;2.70;1.90;;;17.70;99.90;;;;;;5043038;28;20741;-64
2023/07/06 09:46:27;;;;;;;4.57;2.10;;;17.80;99.90;;;;;;5060012;28;20808;-64
2023/07/06 09:48:54;;;;;;;4.20;2.63;;;17.90;99.90;;;;;;5046688;28;20231;-64
2023/07/06 09:51:28;;;;;;;7.00;2.60;;;18.00;99.90;;;;;;5055637;28;20195;-64
2023/07/06 09:54:00;;;;;;;6.45;2.30;;;18.10;99.90;;;;;;5058844;28;20339;-64
2023/07/06 09:56:29;;;;;;;9.07;2.80;;;18.10;99.90;;;;;;5059299;28;20456;-64
2023/07/06 09:58:56;;;;;;;6.60;2.35;;;18.10;99.90;;;;;;5039341;28;21083;-64
2023/07/06 10:01:33;;;;;;;2.95;2.20;;;18.00;99.90;;;;;;5059036;28;20211;-63
2023/07/06 10:04:23;;;;;;;4.63;2.40;;;17.90;99.90;;;;;;5045263;28;20223;-64
2023/07/06 10:07:05;;;;;;;5.53;3.00;;;18.10;99.90;;;;;;5038941;28;20217;-64
2023/07/06 10:09:38;;;;;;;3.90;2.80;;;18.60;99.90;;;;;;5030813;28;21076;-64
2023/07/06 10:12:13;;;;;;;7.20;3.17;;;18.40;99.90;;;;;;5054068;28;20533;-64
2023/07/06 10:14:44;;;;;;;7.38;2.45;;;18.40;99.90;;;;;;5009079;28;20813;-64
2023/07/06 10:17:23;;;;;;;5.45;2.92;;;18.30;99.90;;;;;;5056353;28;20274;-64
2023/07/06 10:19:55;;;;;;;2.58;2.20;;;18.30;99.90;;;;;;5041972;28;20944;-64
2023/07/06 10:22:31;;;;;;;4.82;2.85;;;18.30;99.90;;;;;;5050518;28;20239;-64
2023/07/06 10:25:11;;;;;;;5.57;2.67;;;18.20;99.90;;;;;;5050921;28;20227;-64
2023/07/06 10:27:43;;;;;;;6.70;2.72;;;18.20;99.90;;;;;;5031891;28;20825;-64
2023/07/06 10:30:20;;;;;;;5.70;2.33;;;18.30;99.90;;;;;;5050175;28;20224;-64
2023/07/06 10:32:51;;;;;;;5.20;2.70;;;18.20;99.90;;;;;;5057700;28;20471;-64
2023/07/06 10:35:22;;;;;;;9.95;2.80;;;18.20;99.90;;;;;;5040029;28;20204;-64
2023/07/06 10:37:50;;;;;;;7.82;3.05;;;18.20;99.90;;;;;;5052415;28;20213;-64
2023/07/06 10:40:24;;;;;;;2.47;1.95;;;18.20;99.90;;;;;;5060637;28;20215;-64
2023/07/06 10:43:12;;;;;;;3.88;2.13;;;18.20;99.90;;;;;;5050579;28;20518;-65
2023/07/06 10:45:44;;;;;;;4.53;2.33;;;18.20;99.90;;;;;;5027257;28;20240;-63
2023/07/06 10:48:17;;;;;;;4.10;2.10;;;18.30;99.90;;;;;;5054069;28;20303;-64
2023/07/06 10:50:50;;;;;;;4.05;2.25;;;18.30;99.90;;;;;;5033426;28;20231;-64
2023/07/06 10:53:35;;;;;;;2.83;1.83;;;18.30;99.90;;;;;;5054048;28;20668;-64
2023/07/06 10:56:15;;;;;;;6.78;2.13;;;18.40;99.90;;;;;;5058616;28;20566;-64
2023/07/06 10:58:49;;;;;;;4.57;2.22;;;18.50;99.90;;;;;;5052007;28;20566;-64
2023/07/06 11:01:20;;;;;;;5.57;2.10;;;18.50;99.90;;;;;;5035404;28;20270;-64
2023/07/06 11:03:47;;;;;;;3.15;1.90;;;18.70;99.90;;;;;;5056432;28;20354;-64
2023/07/06 11:06:18;;;;;;;5.72;2.35;;;19.00;99.90;;;;;;5056312;28;20200;-64
2023/07/06 11:09:16;;;;;;;6.85;2.28;;;19.30;99.90;;;;;;5044435;28;20605;-64
2023/07/06 11:12:18;;;;;;;3.30;2.50;;;19.30;99.90;;;;;;4958237;28;20379;-63
2023/07/06 11:14:48;;;;;;;5.68;2.40;;;19.40;99.90;;;;;;4996746;28;20224;-64
2023/07/06 11:17:35;;;;;;;2.67;1.90;;;19.60;99.90;;;;;;5021149;28;21930;-64
2023/07/06 11:20:09;;;;;;;3.17;2.15;;;19.60;99.90;;;;;;5035467;28;20204;-64
2023/07/06 11:22:38;;;;;;;4.88;2.10;;;19.60;99.90;;;;;;5032075;28;20905;-64
2023/07/06 11:25:05;;;;;;;4.78;1.90;;;19.40;99.90;;;;;;5030294;28;20204;-64
2023/07/06 11:27:37;;;;;;;5.60;1.95;;;19.40;99.90;;;;;;5054526;28;20200;-64
2023/07/06 11:30:13;;;;;;;3.65;1.90;;;19.30;99.90;;;;;;5033841;28;20235;-64
2023/07/06 11:33:00;;;;;;;6.97;2.60;;;19.50;99.90;;;;;;5042825;28;20231;-63
2023/07/06 11:35:39;;;;;;;6.22;2.15;;;19.30;99.90;;;;;;5037497;28;20769;-64
2023/07/06 11:38:29;;;;;;;6.97;2.20;;;19.50;99.90;;;;;;5042327;28;20232;-64
2023/07/06 11:41:13;;;;;;;2.22;1.85;;;19.50;99.90;;;;;;5033168;28;20783;-63
2023/07/06 11:43:57;;;;;;;3.00;1.70;;;19.70;99.90;;;;;;5036093;28;20220;-64
2023/07/06 11:46:36;;;;;;;1.95;1.50;;;19.80;99.90;;;;;;5006273;28;20802;-64
2023/07/06 11:49:21;;;;;;;2.88;1.90;;;20.20;99.90;;;;;;5055075;28;20228;-64
2023/07/06 11:51:49;;;;;;;3.42;1.70;;;20.20;99.90;;;;;;5046231;28;20228;-64
2023/07/06 11:54:29;;;;;;;2.42;1.52;;;20.10;99.90;;;;;;5027308;28;20583;-64
2023/07/06 11:57:23;;;;;;;5.40;1.80;;;20.20;99.90;;;;;;5050922;28;20250;-64
2023/07/06 12:00:09;;;;;;;3.33;2.00;;;20.20;99.90;;;;;;5055256;28;20204;-64
2023/07/06 12:02:37;;;;;;;7.40;2.38;;;20.10;99.90;;;;;;5036510;28;20348;-64
2023/07/06 12:05:04;;;;;;;2.80;1.73;;;20.00;99.90;;;;;;5056293;28;20288;-64
2023/07/06 12:07:33;;;;;;;4.18;2.22;;;19.90;99.90;;;;;;5042223;28;20845;-63
2023/07/06 12:10:02;;;;;;;1.80;1.60;;;19.70;99.90;;;;;;5017239;28;20224;-63
2023/07/06 12:12:33;;;;;;;3.15;1.67;;;19.50;99.90;;;;;;5028255;28;20247;-64
2023/07/06 12:15:05;;;;;;;2.60;1.55;;;19.50;99.90;;;;;;5056941;28;20203;-64
2023/07/06 12:17:32;;;;;;;3.30;1.80;;;19.40;99.90;;;;;;5029815;28;20215;-63
2023/07/06 12:19:59;;;;;;;4.97;2.25;;;19.40;99.90;;;;;;5058426;28;20743;-64
2023/07/06 12:22:27;;;;;;;6.45;2.00;;;19.30;99.90;;;;;;5055859;28;20471;-64
2023/07/06 12:24:55;;;;;;;4.63;1.80;;;19.30;99.90;;;;;;5052292;28;20293;-64
2023/07/06 12:27:22;;;;;;;6.57;2.17;;;19.20;99.90;;;;;;5060237;28;20545;-63
2023/07/06 12:29:50;;;;;;;1.55;1.45;;;19.20;99.90;;;;;;5062863;28;20247;-64
2023/07/06 12:32:20;;;;;;;2.95;1.95;;;19.50;99.90;;;;;;5042101;28;20200;-64
2023/07/06 12:34:50;;;;;;;2.80;1.63;;;19.20;99.90;;;;;;5059745;28;20212;-64
2023/07/06 12:37:20;;;;;;;7.25;2.20;;;19.20;99.90;;;;;;5059502;28;20417;-64
2023/07/06 12:39:49;;;;;;;3.67;2.20;;;19.20;99.90;;;;;;5056769;28;20680;-64
2023/07/06 12:42:18;;;;;;;7.68;2.30;;;19.40;99.90;;;;;;5061303;28;20280;-64
2023/07/06 12:44:50;;;;;;;5.90;1.90;;;19.60;99.90;;;;;;5064631;28;20204;-64
2023/07/06 12:47:25;;;;;;;4.60;2.10;;;19.70;99.90;;;;;;5063094;28;20196;-64
2023/07/06 12:49:53;;;;;;;2.25;1.70;;;19.60;99.90;;;;;;5039521;28;20259;-64
2023/07/06 12:52:23;;;;;;;2.67;1.63;;;19.70;99.90;;;;;;5060448;28;20199;-64
2023/07/06 12:54:52;;;;;;;5.70;1.95;;;19.60;99.90;;;;;;5052438;28;20227;-63
2023/07/06 12:57:23;;;;;;;2.67;2.10;;;19.50;99.90;;;;;;5061125;28;20605;-64
2023/07/06 12:59:53;;;;;;;2.47;2.28;;;19.40;99.90;;;;;;5065462;28;20193;-64